Berrotaran, Argentina
Current Conditions -  °F | °C
As of 5:00 PM on Thursday 27 Nov 2014 (Local Time) from SAOC Reporting Station
Broken Clouds Broken Clouds  
Wind Chill: 32°   Ceiling: 20000
Heat Index: 32°   Visibility: 6mi
Dew Point:   Wind: 26mph
Humidity: 18%   Direction: 360°N
Pressure: 29.8"   Gusts: 39mph
Location:  32.46°S, 64.39°W
Report Text: SAOC 272000Z 36023G34KT 9999 FEW030TCUBKN200 32/05 Q1009
Loading
Personal Weather Stations






























Interactive Weather Map New forecast layout! Learn more

10-Day Weather Forecast

Advertisements
Track Severe Weather on mobile